Time;durP1;ratioP1;P1;durP2;ratioP2;P2;SDS_P1;SDS_P2;PMS_P1;PMS_P2;Temp;Humidity;BMP_temperature;BMP_pressure;BME280_temperature;BME280_humidity;BME280_pressure;Samples;Min_cycle;Max_cycle;Signal;HPM_P1;HPM_P2
2021/12/09 00:02:01;;;;;;;24.38;8.52;;;;;;;1.57;92.44;100127.41;5089135;28;20584;-91
2021/12/09 00:04:30;;;;;;;18.73;8.07;;;;;;;1.57;92.58;100124.81;5088327;28;20085;-91
2021/12/09 00:06:58;;;;;;;15.32;7.97;;;;;;;1.58;92.20;100134.25;5088700;28;20024;-91
2021/12/09 00:09:24;;;;;;;13.27;8.02;;;;;;;1.57;92.74;100125.66;5090672;28;20044;-92
2021/12/09 00:11:50;;;;;;;18.13;8.32;;;;;;;1.57;92.74;100140.34;5089880;28;20120;-91
2021/12/09 00:14:28;;;;;;;16.63;8.02;;;;;;;1.56;93.11;100138.69;5090952;28;20023;-91
2021/12/09 00:16:57;;;;;;;19.50;8.13;;;;;;;1.48;93.47;100131.28;5090394;28;20024;-90
2021/12/09 00:19:23;;;;;;;18.27;8.65;;;;;;;1.53;93.32;100136.25;5084352;28;20016;-91
2021/12/09 00:21:48;;;;;;;18.10;8.32;;;;;;;1.50;93.11;100133.78;5090399;28;20038;-91
2021/12/09 00:24:15;;;;;;;18.58;8.27;;;;;;;1.50;92.90;100139.81;5090940;28;20036;-91
2021/12/09 00:26:43;;;;;;;18.05;8.25;;;;;;;1.47;93.86;100133.94;5090687;28;20543;-91
2021/12/09 00:29:09;;;;;;;17.23;8.25;;;;;;;1.46;93.48;100142.63;5089689;28;20032;-90
2021/12/09 00:31:35;;;;;;;23.25;7.57;;;;;;;1.42;93.76;100130.72;5090528;28;20028;-91
2021/12/09 00:34:01;;;;;;;20.17;7.88;;;;;;;1.46;93.57;100132.25;5088724;28;20028;-91
2021/12/09 00:36:27;;;;;;;17.63;8.27;;;;;;;1.42;93.48;100141.09;5084460;28;20048;-91
2021/12/09 00:38:58;;;;;;;13.32;7.78;;;;;;;1.39;93.69;100141.25;5090468;28;20070;-91
2021/12/09 00:41:24;;;;;;;19.83;7.93;;;;;;;1.39;93.52;100142.09;5089988;28;20027;-90
2021/12/09 00:43:50;;;;;;;19.38;8.10;;;;;;;1.36;93.29;100137.06;5090318;28;20505;-90
2021/12/09 00:46:15;;;;;;;18.92;8.43;;;;;;;1.36;92.84;100128.44;5088673;28;20527;-90
2021/12/09 00:48:44;;;;;;;18.70;8.30;;;;;;;1.42;93.73;100141.94;5090123;28;20020;-90
2021/12/09 00:51:14;;;;;;;17.35;8.50;;;;;;;1.42;94.00;100141.09;5080544;28;20099;-91
2021/12/09 00:53:39;;;;;;;15.70;7.72;;;;;;;1.39;93.55;100136.06;5093754;28;20027;-91
2021/12/09 00:56:08;;;;;;;16.98;8.40;;;;;;;1.44;94.50;100144.47;5089438;28;20472;-91
2021/12/09 00:58:34;;;;;;;18.48;8.95;;;;;;;1.38;93.21;100134.38;5088382;28;20042;-91
2021/12/09 01:00:59;;;;;;;15.70;8.30;;;;;;;1.36;93.52;100134.47;5092138;28;20020;-92
2021/12/09 01:03:25;;;;;;;17.05;8.55;;;;;;;1.39;93.35;100142.09;5104217;28;20041;-89
2021/12/09 01:05:50;;;;;;;16.67;8.57;;;;;;;1.41;93.59;100147.19;5090184;28;20016;-90
2021/12/09 01:08:16;;;;;;;21.00;8.35;;;;;;;1.40;93.86;100148.94;5089748;28;20028;-91
2021/12/09 01:10:41;;;;;;;14.30;8.15;;;;;;;1.39;94.16;100147.28;5085127;28;20028;-91
2021/12/09 01:13:07;;;;;;;15.20;7.95;;;;;;;1.34;93.75;100138.03;5092618;28;20032;-91
2021/12/09 01:15:33;;;;;;;16.92;8.02;;;;;;;1.37;93.90;100149.09;5089070;28;20023;-91
2021/12/09 01:17:59;;;;;;;18.25;8.00;;;;;;;1.37;93.70;100149.09;5089018;28;20028;-90
2021/12/09 01:20:25;;;;;;;16.95;7.97;;;;;;;1.33;93.82;100147.56;5090231;28;20032;-91
2021/12/09 01:22:57;;;;;;;20.52;8.55;;;;;;;1.37;93.58;100161.22;5092211;28;20012;-90
2021/12/09 01:25:24;;;;;;;14.20;8.10;;;;;;;1.31;93.37;100153.75;5076516;28;20486;-90
2021/12/09 01:27:53;;;;;;;17.23;8.27;;;;;;;1.36;93.75;100162.13;5087431;28;20020;-91
2021/12/09 01:30:21;;;;;;;15.50;7.90;;;;;;;1.32;93.98;100158.00;5090369;28;20024;-90
2021/12/09 01:32:53;;;;;;;18.20;7.93;;;;;;;1.31;94.21;100162.34;5088625;28;20618;-91
2021/12/09 01:35:40;;;;;;;15.90;8.18;;;;;;;1.32;94.07;100158.00;5089341;28;20098;-91
2021/12/09 01:38:11;;;;;;;19.52;8.27;;;;;;;1.25;94.10;100160.88;5088830;28;20036;-91
2021/12/09 01:40:38;;;;;;;16.23;8.35;;;;;;;1.27;93.99;100165.16;5088735;28;20020;-91
2021/12/09 01:43:04;;;;;;;16.77;7.93;;;;;;;1.29;93.42;100168.53;5082628;28;20154;-91
2021/12/09 01:45:30;;;;;;;20.92;8.75;;;;;;;1.22;93.72;100155.84;5088625;28;20024;-91
2021/12/09 01:47:55;;;;;;;15.88;8.20;;;;;;;1.21;94.61;100153.34;5089285;28;20024;-91
2021/12/09 01:50:22;;;;;;;17.55;8.32;;;;;;;1.24;93.88;100159.22;5089690;28;20032;-91
2021/12/09 01:52:47;;;;;;;16.15;8.32;;;;;;;1.22;94.29;100155.84;5087937;28;20426;-91
2021/12/09 01:55:15;;;;;;;22.63;8.63;;;;;;;1.23;93.96;100154.94;5089292;28;20074;-90
2021/12/09 01:57:41;;;;;;;17.73;8.45;;;;;;;1.22;93.89;100152.41;5089679;28;20031;-91
2021/12/09 02:00:14;;;;;;;18.25;8.13;;;;;;;1.20;94.72;100157.69;5085733;28;20036;-90
2021/12/09 02:02:40;;;;;;;;;;;;;;;1.25;93.78;100144.50;5088869;28;20447;-91
2021/12/09 02:05:06;;;;;;;18.85;7.85;;;;;;;1.18;93.65;100156.88;5087747;28;20004;-91
2021/12/09 02:07:32;;;;;;;18.38;8.15;;;;;;;1.15;94.18;100153.59;5081179;28;20123;-91
2021/12/09 02:09:57;;;;;;;17.27;7.90;;;;;;;1.15;94.35;100148.41;5089094;28;20106;-90
2021/12/09 02:12:23;;;;;;;16.20;7.85;;;;;;;1.11;94.05;100139.94;5088337;28;20051;-91
2021/12/09 02:14:48;;;;;;;16.88;8.48;;;;;;;1.16;94.39;100156.09;5093304;28;20074;-91
2021/12/09 02:17:14;;;;;;;18.85;7.93;;;;;;;1.17;94.59;100152.59;5096241;28;20020;-90
2021/12/09 02:19:42;;;;;;;18.75;8.27;;;;;;;1.12;94.24;100146.81;5090297;28;20531;-90
2021/12/09 02:22:10;;;;;;;16.90;7.70;;;;;;;1.15;94.02;100151.84;5092587;28;20035;-91
2021/12/09 02:24:35;;;;;;;18.17;7.90;;;;;;;1.10;94.29;100140.84;5086231;28;20054;-90
2021/12/09 02:27:00;;;;;;;16.02;8.10;;;;;;;1.16;94.38;100145.75;5092604;28;20407;-91
2021/12/09 02:29:26;;;;;;;20.85;7.65;;;;;;;1.14;93.90;100149.31;5092650;28;20034;-91
2021/12/09 02:31:56;;;;;;;19.30;7.75;;;;;;;1.12;93.91;100135.59;5092720;28;20547;-91
2021/12/09 02:34:22;;;;;;;20.55;7.93;;;;;;;1.15;94.38;100149.25;5091273;28;20054;-91
2021/12/09 02:36:51;;;;;;;17.30;7.85;;;;;;;1.12;94.03;100138.19;5080775;28;20024;-90
2021/12/09 02:39:16;;;;;;;15.77;7.43;;;;;;;1.11;94.21;100152.91;5090026;28;20024;-90
2021/12/09 02:41:44;;;;;;;19.35;7.72;;;;;;;1.11;94.33;100146.88;5092196;28;20074;-91
2021/12/09 02:44:17;;;;;;;15.27;7.38;;;;;;;1.11;94.50;100144.28;5093046;28;20127;-91
2021/12/09 02:46:45;;;;;;;16.08;7.85;;;;;;;1.07;94.34;100140.16;5083958;28;20016;-91
2021/12/09 02:49:15;;;;;;;17.60;7.72;;;;;;;1.10;94.13;100148.63;5092622;28;20028;-91
2021/12/09 02:51:41;;;;;;;17.95;7.20;;;;;;;1.09;93.93;100144.34;5091418;28;20027;-91
2021/12/09 02:54:10;;;;;;;19.42;7.25;;;;;;;1.06;94.45;100149.69;5084812;28;20031;-91
2021/12/09 02:56:36;;;;;;;19.92;8.40;;;;;;;1.08;94.16;100147.03;5090302;28;20028;-91
2021/12/09 02:59:02;;;;;;;16.60;7.55;;;;;;;1.06;94.22;100143.66;5092459;28;20081;-91
2021/12/09 03:01:34;;;;;;;18.85;7.63;;;;;;;1.05;94.53;100153.19;5087547;28;20024;-91
2021/12/09 03:04:04;;;;;;;17.02;7.20;;;;;;;1.05;94.61;100153.19;5089765;28;20024;-91
2021/12/09 03:06:41;;;;;;;14.02;7.55;;;;;;;1.06;94.40;100160.03;5090893;28;20103;-90
2021/12/09 03:09:10;;;;;;;18.35;7.43;;;;;;;1.06;94.19;100167.81;5084296;28;20438;-91
2021/12/09 03:11:36;;;;;;;17.08;6.97;;;;;;;1.04;94.19;100166.19;5091631;28;20097;-91
2021/12/09 03:14:04;;;;;;;15.98;6.85;;;;;;;0.98;94.05;100151.78;5099719;28;20115;-91
2021/12/09 03:16:30;;;;;;;15.98;7.07;;;;;;;1.05;94.07;100170.47;5089342;28;20142;-90
2021/12/09 03:18:59;;;;;;;21.05;7.25;;;;;;;1.00;94.43;100170.69;5090976;28;20115;-91
2021/12/09 03:21:35;;;;;;;11.75;6.85;;;;;;;1.01;94.47;100177.56;5092150;28;20391;-91
2021/12/09 03:24:03;;;;;;;18.30;7.07;;;;;;;1.01;94.23;100182.72;5090839;28;20035;-91
2021/12/09 03:26:32;;;;;;;18.90;7.32;;;;;;;1.00;94.20;100185.38;5090410;28;20028;-90
2021/12/09 03:29:01;;;;;;;14.45;6.72;;;;;;;0.98;94.22;100192.38;5084616;28;20028;-91
2021/12/09 03:31:27;;;;;;;15.88;7.45;;;;;;;0.96;94.17;100191.63;5090392;28;20426;-91
2021/12/09 03:33:53;;;;;;;17.65;6.82;;;;;;;0.93;94.32;100179.66;5090112;28;20062;-91
2021/12/09 03:36:19;;;;;;;15.30;6.90;;;;;;;0.92;94.70;100170.19;5089728;28;20076;-91
2021/12/09 03:38:45;;;;;;;15.65;6.90;;;;;;;0.94;94.65;100178.75;5089251;28;20449;-91
2021/12/09 03:41:10;;;;;;;12.35;6.25;;;;;;;0.94;93.87;100186.50;5091947;28;20107;-90
2021/12/09 03:43:36;;;;;;;13.63;6.97;;;;;;;0.90;94.27;100184.97;5085354;28;20162;-91
2021/12/09 03:46:03;;;;;;;16.80;6.30;;;;;;;0.91;94.26;100197.84;5090776;28;20842;-91
2021/12/09 03:48:30;;;;;;;15.25;6.30;;;;;;;0.89;94.09;100198.81;5091589;28;20032;-91
2021/12/09 03:50:56;;;;;;;14.10;6.57;;;;;;;0.83;94.44;100194.75;5089197;28;20032;-91
2021/12/09 03:53:23;;;;;;;15.40;6.20;;;;;;;0.84;94.11;100201.63;5091386;28;20102;-91
2021/12/09 03:55:49;;;;;;;21.67;6.75;;;;;;;0.78;94.53;100190.66;5089474;28;20028;-90
2021/12/09 03:58:15;;;;;;;16.30;6.35;;;;;;;0.83;94.41;100199.09;5090620;28;20044;-91
2021/12/09 04:00:41;;;;;;;15.68;6.47;;;;;;;0.78;93.83;100201.88;5085218;28;20035;-90
2021/12/09 04:03:07;;;;;;;15.98;6.22;;;;;;;0.77;94.93;100201.94;5091235;28;20032;-91
2021/12/09 04:05:33;;;;;;;14.77;5.90;;;;;;;0.74;94.24;100199.47;5089147;28;20044;-91
2021/12/09 04:07:59;;;;;;;15.13;6.25;;;;;;;0.79;94.01;100194.94;5091251;28;20074;-90
2021/12/09 04:10:24;;;;;;;18.27;6.25;;;;;;;0.74;94.30;100189.13;5089664;28;20032;-90
2021/12/09 04:12:50;;;;;;;14.23;5.72;;;;;;;0.74;94.51;100179.63;5091445;28;20055;-90
2021/12/09 04:15:16;;;;;;;16.65;6.57;;;;;;;0.77;95.16;100192.41;5089590;28;20476;-91
2021/12/09 04:17:41;;;;;;;14.77;6.50;;;;;;;0.72;94.99;100188.34;5085661;28;20569;-90
2021/12/09 04:20:08;;;;;;;11.13;6.18;;;;;;;0.72;94.44;100196.97;5081595;28;20070;-91
2021/12/09 04:22:34;;;;;;;12.05;5.75;;;;;;;0.70;94.65;100197.94;5091074;28;20032;-91
2021/12/09 04:25:00;;;;;;;17.48;5.93;;;;;;;0.71;94.93;100199.63;5089547;28;20024;-91
2021/12/09 04:27:26;;;;;;;15.68;6.30;;;;;;;0.67;95.08;100198.06;5090177;28;20057;-91
2021/12/09 04:29:52;;;;;;;17.17;5.80;;;;;;;0.69;94.68;100198.84;5089121;28;20024;-91
2021/12/09 04:32:18;;;;;;;13.48;5.75;;;;;;;0.70;94.62;100200.53;5089518;28;20471;-91
2021/12/09 04:34:44;;;;;;;14.32;5.53;;;;;;;0.65;95.30;100189.53;5081503;28;20086;-91
2021/12/09 04:37:09;;;;;;;16.27;5.40;;;;;;;0.71;95.03;100207.38;5090453;28;20032;-91
2021/12/09 04:39:39;;;;;;;15.43;5.63;;;;;;;0.69;94.90;100201.44;5089495;28;20059;-91
2021/12/09 04:42:06;;;;;;;15.90;5.47;;;;;;;0.72;94.52;100206.47;5087102;28;20031;-91
2021/12/09 04:44:32;;;;;;;9.90;5.35;;;;;;;0.71;95.04;100216.00;5088155;28;20058;-91
2021/12/09 04:47:00;;;;;;;17.75;6.03;;;;;;;0.71;95.00;100213.41;5089199;28;20024;-90
2021/12/09 04:49:26;;;;;;;18.48;5.43;;;;;;;0.70;94.71;100208.28;5086836;28;20038;-90
2021/12/09 04:51:52;;;;;;;16.00;5.75;;;;;;;0.74;95.25;100220.19;5087434;28;20357;-91
2021/12/09 04:54:17;;;;;;;13.00;5.57;;;;;;;0.70;94.95;100203.97;5089708;28;20085;-91
2021/12/09 04:56:42;;;;;;;15.65;5.97;;;;;;;0.70;95.28;100208.28;5090079;28;20101;-91
2021/12/09 04:59:08;;;;;;;15.30;5.43;;;;;;;0.70;94.70;100208.28;5090238;28;20066;-91
2021/12/09 05:01:35;;;;;;;14.70;5.05;;;;;;;0.71;95.04;100210.81;5085393;28;20016;-91
2021/12/09 05:04:01;;;;;;;15.75;5.55;;;;;;;0.72;94.84;100203.88;5084900;28;20078;-90
2021/12/09 05:06:29;;;;;;;15.52;5.25;;;;;;;0.72;94.80;100211.66;5087957;28;20055;-91
2021/12/09 05:08:55;;;;;;;10.35;5.35;;;;;;;0.71;95.13;100213.41;5083651;28;20027;-91
2021/12/09 05:11:48;;;;;;;11.98;5.40;;;;;;;0.71;95.10;100212.56;5088959;28;20028;-90
2021/12/09 05:14:17;;;;;;;13.55;5.32;;;;;;;0.70;95.06;100213.47;5096010;28;20480;-91
2021/12/09 05:16:45;;;;;;;11.50;4.97;;;;;;;0.63;95.12;100208.56;5087158;28;20031;-91
2021/12/09 05:19:11;;;;;;;15.95;5.82;;;;;;;0.66;95.22;100214.50;5087808;28;20468;-90
2021/12/09 05:21:39;;;;;;;19.30;5.32;;;;;;;0.73;95.40;100228.88;5088203;28;20042;-90
2021/12/09 05:24:13;;;;;;;13.48;5.22;;;;;;;0.72;95.04;100224.59;5086934;28;20024;-91
2021/12/09 05:26:45;;;;;;;15.52;5.25;;;;;;;0.74;95.45;100225.38;5081381;28;20028;-90
2021/12/09 05:29:11;;;;;;;15.65;5.30;;;;;;;0.65;94.89;100215.44;5088409;28;20119;-91
2021/12/09 05:34:22;;;;;;;13.70;5.22;;;;;;;0.73;94.43;100218.50;5084453;28;20121;-91
2021/12/09 05:36:48;;;;;;;13.32;5.97;;;;;;;0.71;94.96;100228.09;5088704;28;20036;-91
2021/12/09 05:39:13;;;;;;;12.55;5.95;;;;;;;0.65;95.26;100218.00;5089946;28;20419;-90
2021/12/09 05:41:39;;;;;;;14.80;5.82;;;;;;;0.70;95.06;100229.84;5096195;28;20020;-90
2021/12/09 05:44:07;;;;;;;16.80;5.85;;;;;;;0.67;94.80;100237.75;5082872;28;20393;-90
2021/12/09 05:46:36;;;;;;;14.48;5.85;;;;;;;0.66;95.38;100230.88;5088257;28;20028;-90
2021/12/09 05:49:03;;;;;;;15.10;5.82;;;;;;;0.56;94.82;100222.69;5089195;28;20051;-90
2021/12/09 05:51:29;;;;;;;11.70;5.65;;;;;;;0.65;95.31;100249.06;5087613;28;20023;-91
2021/12/09 05:53:55;;;;;;;14.70;5.57;;;;;;;0.63;95.47;100237.03;5088459;28;20024;-90
2021/12/09 05:56:21;;;;;;;18.67;6.10;;;;;;;0.61;95.52;100244.03;5092002;28;20020;-90
2021/12/09 05:58:47;;;;;;;19.35;6.30;;;;;;;0.62;95.34;100244.88;5087407;28;20035;-91
2021/12/09 06:01:13;;;;;;;16.40;5.85;;;;;;;0.61;95.21;100241.44;5089669;28;20695;-91
2021/12/09 06:03:38;;;;;;;13.88;6.55;;;;;;;0.57;95.31;100234.72;5093755;28;20031;-91
2021/12/09 06:06:04;;;;;;;15.20;5.90;;;;;;;0.57;95.12;100239.06;5092987;28;20028;-91
2021/12/09 06:08:29;;;;;;;14.10;6.43;;;;;;;0.61;95.10;100241.44;5093071;28;20111;-91
2021/12/09 06:10:55;;;;;;;13.20;5.63;;;;;;;0.60;95.50;100239.75;5092594;28;20031;-91
2021/12/09 06:13:23;;;;;;;19.92;6.60;;;;;;;0.58;95.63;100241.56;5092023;28;20060;-90
2021/12/09 06:15:48;;;;;;;15.18;6.85;;;;;;;0.54;95.81;100228.84;5091017;28;20020;-91
2021/12/09 06:18:14;;;;;;;15.23;6.03;;;;;;;0.50;95.42;100230.72;5092381;28;20558;-91
2021/12/09 06:20:39;;;;;;;18.15;6.70;;;;;;;0.56;95.23;100238.22;5092092;28;20035;-91
2021/12/09 06:23:05;;;;;;;17.02;6.68;;;;;;;0.58;95.24;100240.72;5091305;28;20035;-91
2021/12/09 06:25:31;;;;;;;16.00;7.00;;;;;;;0.60;95.20;100239.75;5091693;28;20141;-91
2021/12/09 06:27:57;;;;;;;16.08;6.35;;;;;;;0.59;95.78;100238.09;5083031;28;20425;-90
2021/12/09 06:30:23;;;;;;;16.40;6.47;;;;;;;0.59;95.70;100232.91;5092790;28;20436;-90
2021/12/09 06:32:49;;;;;;;16.50;6.68;;;;;;;0.56;95.47;100235.63;5090408;28;20028;-91
2021/12/09 06:35:15;;;;;;;17.75;6.20;;;;;;;0.58;95.12;100245.91;5082445;28;20040;-90
2021/12/09 06:37:44;;;;;;;14.20;6.78;;;;;;;0.50;94.99;100228.13;5092783;28;20515;-90
2021/12/09 06:40:13;;;;;;;21.23;7.32;;;;;;;0.57;95.99;100247.66;5084593;28;20522;-90
2021/12/09 06:42:43;;;;;;;16.48;7.07;;;;;;;0.52;95.30;100235.81;5091266;28;20039;-91
2021/12/09 06:45:10;;;;;;;18.50;7.35;;;;;;;0.51;95.54;100249.66;5092833;28;20027;-91
2021/12/09 06:47:35;;;;;;;17.88;7.13;;;;;;;0.57;95.61;100250.25;5092078;28;20048;-91
2021/12/09 06:50:01;;;;;;;14.75;6.75;;;;;;;0.53;95.94;100243.53;5090285;28;20051;-90
2021/12/09 06:52:27;;;;;;;14.93;7.00;;;;;;;0.56;95.79;100253.75;5091658;28;20035;-91
2021/12/09 06:54:52;;;;;;;13.70;7.22;;;;;;;0.56;95.64;100252.91;5087534;28;20364;-89
2021/12/09 06:57:18;;;;;;;20.40;7.13;;;;;;;0.52;95.56;100247.00;5090176;28;20072;-90
2021/12/09 06:59:44;;;;;;;15.02;7.05;;;;;;;0.55;95.69;100257.25;5090471;28;20050;-88
2021/12/09 07:02:10;;;;;;;20.65;7.28;;;;;;;0.56;96.08;100256.31;5087677;28;20012;-89
2021/12/09 07:04:36;;;;;;;15.98;7.05;;;;;;;0.48;95.35;100254.97;5091975;28;20035;-89
2021/12/09 07:07:01;;;;;;;15.65;6.97;;;;;;;0.57;95.65;100260.59;5090809;28;20500;-91
2021/12/09 07:09:29;;;;;;;17.10;6.85;;;;;;;0.55;95.02;100262.41;5087620;28;20028;-90
2021/12/09 07:11:56;;;;;;;13.25;6.78;;;;;;;0.53;95.71;100269.41;5091689;28;20016;-89
2021/12/09 07:14:21;;;;;;;14.10;6.25;;;;;;;0.52;96.15;100262.53;5092105;28;20077;-89
2021/12/09 07:16:47;;;;;;;16.40;6.55;;;;;;;0.52;95.67;100261.69;5091357;28;20024;-89
2021/12/09 07:19:12;;;;;;;16.63;6.53;;;;;;;0.52;95.56;100267.72;5091953;28;20087;-89
2021/12/09 07:21:38;;;;;;;15.93;6.47;;;;;;;0.54;95.71;100270.25;5091222;28;20035;-89
2021/12/09 07:24:04;;;;;;;16.23;6.45;;;;;;;0.54;95.93;100271.09;5090744;28;20020;-89
2021/12/09 07:26:30;;;;;;;17.75;6.53;;;;;;;0.50;95.84;100264.34;5071984;28;20103;-89
2021/12/09 07:28:56;;;;;;;15.57;6.93;;;;;;;0.54;95.63;100273.66;5085509;28;20681;-91
2021/12/09 07:31:24;;;;;;;22.27;6.53;;;;;;;0.53;96.05;100272.00;5091886;28;20443;-89
2021/12/09 07:33:50;;;;;;;17.67;6.57;;;;;;;0.52;95.86;100270.31;5089689;28;20486;-89
2021/12/09 07:36:16;;;;;;;17.38;6.35;;;;;;;0.53;96.02;100264.22;5091158;28;20044;-90
2021/12/09 07:38:45;;;;;;;14.45;6.28;;;;;;;0.54;96.22;100271.09;5090478;28;20552;-89
2021/12/09 07:41:14;;;;;;;16.85;6.97;;;;;;;0.54;95.68;100270.25;5090465;28;20037;-90
2021/12/09 07:43:40;;;;;;;14.45;6.57;;;;;;;0.54;96.22;100268.50;5077572;28;20020;-89
2021/12/09 07:46:06;;;;;;;17.88;7.18;;;;;;;0.53;96.62;100271.16;5090659;28;20098;-90
2021/12/09 07:48:31;;;;;;;16.38;6.40;;;;;;;0.52;96.00;100264.28;5085850;28;20094;-88
2021/12/09 07:50:57;;;;;;;17.10;6.85;;;;;;;0.51;96.32;100271.22;5091122;28;20103;-89
2021/12/09 07:53:22;;;;;;;14.15;6.38;;;;;;;0.54;96.50;100272.84;5091645;28;20032;-90
2021/12/09 07:55:49;;;;;;;16.30;6.95;;;;;;;0.57;96.39;100276.13;5091209;28;20039;-90
2021/12/09 07:58:15;;;;;;;17.90;6.75;;;;;;;0.53;96.37;100269.41;5088241;28;20020;-89
2021/12/09 08:00:40;;;;;;;21.33;7.00;;;;;;;0.59;96.62;100279.50;5079286;28;20032;-89
2021/12/09 08:03:05;;;;;;;18.80;6.72;;;;;;;0.59;96.17;100289.84;5089976;28;20390;-90
2021/12/09 08:05:36;;;;;;;15.77;6.93;;;;;;;0.50;96.16;100268.69;5090596;28;20334;-89
2021/12/09 08:08:04;;;;;;;17.90;7.18;;;;;;;0.58;96.04;100292.50;5091639;28;20032;-90
2021/12/09 08:10:29;;;;;;;17.60;6.65;;;;;;;0.59;96.49;100297.63;5090067;28;20088;-90
2021/12/09 08:12:54;;;;;;;20.23;6.95;;;;;;;0.57;96.17;100296.84;5091029;28;20475;-90
2021/12/09 08:15:20;;;;;;;17.95;7.22;;;;;;;0.63;96.70;100306.09;5090457;28;20066;-90
2021/12/09 08:17:58;;;;;;;19.67;6.57;;;;;;;0.67;97.00;100306.81;5092768;28;20424;-90
2021/12/09 08:20:24;;;;;;;16.00;6.90;;;;;;;0.70;96.64;100309.25;5084667;28;20036;-89
2021/12/09 08:22:49;;;;;;;18.02;7.05;;;;;;;0.72;96.36;100305.69;5091822;28;20080;-90
2021/12/09 08:25:14;;;;;;;16.95;7.15;;;;;;;0.75;96.51;100300.38;5088506;28;20395;-89
2021/12/09 08:27:44;;;;;;;15.88;6.75;;;;;;;0.75;96.75;100294.38;5091144;28;20464;-89
2021/12/09 08:30:15;;;;;;;17.10;6.72;;;;;;;0.75;97.01;100289.19;5092301;28;20102;-89
2021/12/09 08:32:41;;;;;;;17.48;7.28;;;;;;;0.78;97.63;100283.88;5092241;28;20024;-88
2021/12/09 08:35:07;;;;;;;19.77;7.30;;;;;;;0.80;96.72;100282.06;5088633;28;20044;-89
2021/12/09 08:37:33;;;;;;;19.33;7.40;;;;;;;0.91;97.26;100300.59;5085853;28;20081;-88
2021/12/09 08:39:58;;;;;;;18.05;6.80;;;;;;;0.95;96.38;100296.97;5080681;28;20054;-89
2021/12/09 08:42:24;;;;;;;18.33;7.07;;;;;;;0.96;97.19;100288.28;5079029;28;20054;-89
2021/12/09 08:44:51;;;;;;;15.60;7.32;;;;;;;0.92;97.00;100286.72;5080250;28;20487;-88
2021/12/09 08:47:16;;;;;;;20.27;7.15;;;;;;;1.04;96.36;100301.75;5090126;28;20016;-89
2021/12/09 08:49:42;;;;;;;15.57;7.25;;;;;;;1.07;96.70;100311.13;5090252;28;20055;-87
2021/12/09 08:52:08;;;;;;;24.60;7.45;;;;;;;1.04;96.30;100296.56;5089639;28;20028;-89
2021/12/09 08:54:33;;;;;;;19.60;7.65;;;;;;;1.09;96.47;100299.78;5090043;28;20032;-89
2021/12/09 08:56:59;;;;;;;20.38;7.07;;;;;;;1.12;97.06;100299.66;5089393;28;20443;-89
2021/12/09 08:59:25;;;;;;;19.05;7.57;;;;;;;1.19;96.40;100303.66;5089509;28;20399;-89
2021/12/09 09:01:51;;;;;;;14.35;6.90;;;;;;;1.23;96.71;100304.38;5090539;28;20031;-89
2021/12/09 09:04:17;;;;;;;15.15;7.05;;;;;;;1.21;96.45;100299.25;5089991;28;20032;-89
2021/12/09 09:06:54;;;;;;;16.40;7.53;;;;;;;1.22;96.49;100303.53;5090497;28;20051;-89
2021/12/09 09:09:19;;;;;;;18.67;7.30;;;;;;;1.34;96.66;100314.25;5089073;28;20027;-90
2021/12/09 09:11:45;;;;;;;14.95;7.30;;;;;;;1.38;96.74;100305.44;5088987;28;20388;-89
2021/12/09 09:14:10;;;;;;;20.08;7.45;;;;;;;1.38;96.05;100300.25;5095212;28;20028;-89
2021/12/09 09:16:37;;;;;;;14.10;7.22;;;;;;;1.41;95.92;100300.13;5090041;28;20096;-90
2021/12/09 09:19:03;;;;;;;25.30;7.43;;;;;;;1.45;96.52;100299.06;5090914;28;20623;-90
2021/12/09 09:21:29;;;;;;;17.20;7.20;;;;;;;1.53;96.71;100309.91;5089750;28;20107;-90
2021/12/09 09:23:56;;;;;;;21.23;8.35;;;;;;;1.57;96.13;100301.09;5090112;28;20076;-91
2021/12/09 09:26:21;;;;;;;21.38;8.35;;;;;;;1.61;96.27;100301.81;5087788;28;20024;-90
2021/12/09 09:28:47;;;;;;;21.50;8.43;;;;;;;1.65;96.47;100304.19;5085692;28;20420;-90
2021/12/09 09:31:13;;;;;;;19.90;7.63;;;;;;;1.69;96.35;100305.72;5090589;28;20400;-91
2021/12/09 09:33:39;;;;;;;16.95;7.45;;;;;;;1.65;96.47;100296.41;5086025;28;20103;-85
2021/12/09 09:36:05;;;;;;;19.05;7.95;;;;;;;1.68;95.92;100295.44;5088323;28;20518;-87
2021/12/09 09:38:31;;;;;;;23.33;8.07;;;;;;;1.80;96.34;100306.06;5090094;28;20039;-87
2021/12/09 09:41:07;;;;;;;22.70;8.20;;;;;;;1.84;95.82;100311.94;5083336;28;20039;-89
2021/12/09 09:46:19;;;;;;;16.73;7.55;;;;;;;1.92;96.34;100314.19;5085695;28;20038;-90
2021/12/09 09:48:45;;;;;;;22.77;8.30;;;;;;;1.96;95.91;100328.69;5080840;28;20464;-90
2021/12/09 09:51:12;;;;;;;17.40;7.88;;;;;;;1.96;95.55;100316.56;5088274;28;20024;-90
2021/12/09 09:53:41;;;;;;;16.95;7.55;;;;;;;1.99;95.77;100328.53;5088886;28;20039;-90
2021/12/09 09:56:13;;;;;;;23.60;8.00;;;;;;;1.98;95.93;100317.31;5086083;28;20024;-90
2021/12/09 09:58:44;;;;;;;16.90;7.60;;;;;;;2.05;95.47;100328.28;5086431;28;20437;-87
2021/12/09 10:01:09;;;;;;;16.45;7.82;;;;;;;2.08;95.36;100328.13;5087378;28;20055;-89
2021/12/09 10:03:42;;;;;;;20.67;8.02;;;;;;;2.04;96.05;100318.81;5076055;28;20441;-89
2021/12/09 10:06:07;;;;;;;;;;;;;;;2.20;95.33;100332.72;5084934;28;20033;-88
2021/12/09 10:08:33;;;;;;;18.25;7.40;;;;;;;2.17;95.25;100323.34;5075182;28;19912;-90
2021/12/09 10:10:59;;;;;;;17.48;7.53;;;;;;;2.22;95.54;100315.34;5079005;28;20036;-89
2021/12/09 10:13:40;;;;;;;18.52;8.07;;;;;;;2.26;95.75;100329.84;5088175;28;20028;-90
2021/12/09 10:16:22;;;;;;;19.60;7.90;;;;;;;2.27;96.06;100321.13;5080537;28;20032;-89
2021/12/09 10:18:50;;;;;;;19.33;8.02;;;;;;;2.27;95.70;100315.94;5088621;28;20055;-90
2021/12/09 10:21:23;;;;;;;19.88;8.15;;;;;;;2.37;95.59;100317.16;5087393;28;20077;-90
2021/12/09 10:24:01;;;;;;;19.10;7.97;;;;;;;2.38;95.21;100300.69;5087275;28;20028;-90
2021/12/09 10:26:30;;;;;;;19.45;8.15;;;;;;;2.47;95.78;100304.59;5088290;28;20032;-90
2021/12/09 10:29:01;;;;;;;15.48;7.93;;;;;;;2.51;95.54;100304.38;5089361;28;20032;-90
2021/12/09 10:31:30;;;;;;;16.55;8.00;;;;;;;2.48;95.17;100291.56;5088701;28;20039;-89
2021/12/09 10:34:02;;;;;;;16.77;8.05;;;;;;;2.57;95.14;100302.38;5087856;28;20024;-89
2021/12/09 10:36:54;;;;;;;15.95;8.13;;;;;;;2.59;95.15;100296.19;5086507;28;20062;-90
2021/12/09 10:39:31;;;;;;;16.52;7.70;;;;;;;2.63;95.17;100296.88;5085915;28;20098;-89
2021/12/09 10:42:00;;;;;;;18.15;8.50;;;;;;;2.56;94.94;100285.13;5082805;28;20078;-90
2021/12/09 10:44:36;;;;;;;13.20;7.95;;;;;;;2.62;94.73;100297.81;5092678;28;20016;-90
2021/12/09 10:47:09;;;;;;;14.27;8.23;;;;;;;2.64;94.83;100298.56;5091928;28;20055;-90
2021/12/09 10:49:55;;;;;;;16.52;8.02;;;;;;;2.69;95.09;100309.56;5091396;28;20023;-88
2021/12/09 10:52:22;;;;;;;17.27;8.25;;;;;;;2.74;95.22;100310.16;5084511;28;20058;-89
2021/12/09 10:54:47;;;;;;;14.40;7.72;;;;;;;2.71;94.30;100303.38;5090669;28;20035;-90
2021/12/09 10:57:28;;;;;;;15.65;7.55;;;;;;;2.80;94.80;100320.25;5090022;28;20024;-90
2021/12/09 10:59:54;;;;;;;13.25;8.40;;;;;;;2.81;94.88;100308.97;5091387;28;20051;-86
2021/12/09 11:02:20;;;;;;;13.75;7.55;;;;;;;2.81;94.53;100307.22;5092394;28;20027;-86
2021/12/09 11:05:04;;;;;;;13.40;7.82;;;;;;;2.87;94.77;100318.19;5091273;28;20012;-86
2021/12/09 11:07:31;;;;;;;14.07;8.10;;;;;;;2.89;94.41;100304.22;5084181;28;20028;-86
2021/12/09 11:10:24;;;;;;;15.18;7.95;;;;;;;2.91;94.67;100298.94;5092373;28;20103;-87
2021/12/09 11:12:57;;;;;;;11.60;8.30;;;;;;;2.95;94.31;100306.50;5093778;28;20130;-91
2021/12/09 11:16:05;;;;;;;15.10;8.40;;;;;;;2.96;94.95;100297.78;5079909;28;20028;-89
2021/12/09 11:18:35;;;;;;;15.23;7.70;;;;;;;3.00;94.30;100301.91;5086871;28;20058;-89
2021/12/09 11:21:05;;;;;;;15.73;7.78;;;;;;;3.02;94.00;100289.66;5087545;28;20468;-89
2021/12/09 11:23:44;;;;;;;11.75;7.70;;;;;;;3.05;94.02;100297.31;5091484;28;20471;-89
2021/12/09 11:26:31;;;;;;;21.65;9.10;;;;;;;3.02;93.99;100275.84;5091876;28;20096;-89
2021/12/09 11:29:14;;;;;;;10.65;6.80;;;;;;;3.03;94.70;100272.31;5089278;28;20070;-89
2021/12/09 11:31:51;;;;;;;13.88;7.05;;;;;;;3.05;94.63;100271.31;5095996;28;20024;-89
2021/12/09 11:34:19;;;;;;;14.20;7.38;;;;;;;3.14;94.38;100286.41;5088909;28;20050;-91
2021/12/09 11:36:57;;;;;;;15.20;6.93;;;;;;;3.12;93.80;100282.22;5081547;28;20769;-89